sensor_id;sensor_type;location;lat;lon;timestamp;pressure;altitude;pressure_sealevel;temperature;humidity
7109;BME280;29079;41.930;25.558;2023-01-25T00:01:54;101074.50;;;1.51;84.82
7109;BME280;29079;41.930;25.558;2023-01-25T00:04:28;101108.66;;;1.87;84.86
7109;BME280;29079;41.930;25.558;2023-01-25T00:07:02;101110.41;;;1.87;84.78
7109;BME280;29079;41.930;25.558;2023-01-25T00:09:35;101111.88;;;1.97;85.61
7109;BME280;29079;41.930;25.558;2023-01-25T00:12:08;101106.69;;;1.94;84.99
7109;BME280;29079;41.930;25.558;2023-01-25T00:14:42;101106.59;;;1.66;84.04
7109;BME280;29079;41.930;25.558;2023-01-25T00:17:17;101101.88;;;1.77;85.89
7109;BME280;29079;41.930;25.558;2023-01-25T00:19:51;101110.47;;;1.84;85.26
7109;BME280;29079;41.930;25.558;2023-01-25T00:22:24;101112.75;;;1.65;84.90
7109;BME280;29079;41.930;25.558;2023-01-25T00:24:58;101119.06;;;1.58;84.85
7109;BME280;29079;41.930;25.558;2023-01-25T00:27:31;101116.09;;;1.71;84.75
7109;BME280;29079;41.930;25.558;2023-01-25T00:30:05;101123.16;;;1.69;84.42
7109;BME280;29079;41.930;25.558;2023-01-25T00:32:53;101121.66;;;1.59;85.52
7109;BME280;29079;41.930;25.558;2023-01-25T00:35:30;101113.47;;;1.70;85.21
7109;BME280;29079;41.930;25.558;2023-01-25T00:38:06;101117.00;;;1.70;84.99
7109;BME280;29079;41.930;25.558;2023-01-25T00:40:57;101112.41;;;1.77;84.61
7109;BME280;29079;41.930;25.558;2023-01-25T00:43:31;101098.97;;;1.55;85.18
7109;BME280;29079;41.930;25.558;2023-01-25T00:46:04;101124.84;;;1.72;85.08
7109;BME280;29079;41.930;25.558;2023-01-25T00:48:39;101109.72;;;1.80;85.73
7109;BME280;29079;41.930;25.558;2023-01-25T00:51:12;101119.31;;;1.81;85.30
7109;BME280;29079;41.930;25.558;2023-01-25T00:53:46;101119.59;;;1.72;85.10
7109;BME280;29079;41.930;25.558;2023-01-25T00:56:20;101119.44;;;1.77;86.06
7109;BME280;29079;41.930;25.558;2023-01-25T00:58:53;101128.81;;;1.87;86.47
7109;BME280;29079;41.930;25.558;2023-01-25T01:01:27;101119.59;;;1.72;85.50
7109;BME280;29079;41.930;25.558;2023-01-25T01:04:01;101122.00;;;1.80;86.21
7109;BME280;29079;41.930;25.558;2023-01-25T01:06:37;101120.22;;;1.82;86.01
7109;BME280;29079;41.930;25.558;2023-01-25T01:09:13;101124.66;;;1.78;86.03
7109;BME280;29079;41.930;25.558;2023-01-25T01:11:48;101127.22;;;1.81;85.44
7109;BME280;29079;41.930;25.558;2023-01-25T01:14:22;101130.66;;;1.85;86.29
7109;BME280;29079;41.930;25.558;2023-01-25T01:16:56;101124.13;;;1.98;86.68
7109;BME280;29079;41.930;25.558;2023-01-25T01:19:31;101127.84;;;1.91;85.12
7109;BME280;29079;41.930;25.558;2023-01-25T01:22:05;101123.94;;;1.73;85.50
7109;BME280;29079;41.930;25.558;2023-01-25T01:24:38;101127.13;;;1.84;85.71
7109;BME280;29079;41.930;25.558;2023-01-25T01:27:12;101120.31;;;1.77;85.73
7109;BME280;29079;41.930;25.558;2023-01-25T01:29:45;101117.81;;;1.72;85.79
7109;BME280;29079;41.930;25.558;2023-01-25T01:32:19;101117.44;;;1.86;86.85
7109;BME280;29079;41.930;25.558;2023-01-25T01:34:53;101109.06;;;1.72;85.31
7109;BME280;29079;41.930;25.558;2023-01-25T01:37:27;101107.91;;;1.82;85.78
7109;BME280;29079;41.930;25.558;2023-01-25T01:40:00;101112.41;;;1.77;85.20
7109;BME280;29079;41.930;25.558;2023-01-25T01:42:55;101113.47;;;1.71;85.92
7109;BME280;29079;41.930;25.558;2023-01-25T01:45:48;101105.31;;;1.81;86.79
7109;BME280;29079;41.930;25.558;2023-01-25T01:48:30;101109.63;;;1.83;86.73
7109;BME280;29079;41.930;25.558;2023-01-25T01:51:11;101096.16;;;1.61;85.62
7109;BME280;29079;41.930;25.558;2023-01-25T01:53:47;101097.03;;;1.62;85.25
7109;BME280;29079;41.930;25.558;2023-01-25T01:56:27;101102.41;;;1.59;84.95
7109;BME280;29079;41.930;25.558;2023-01-25T01:59:04;101110.63;;;1.45;84.96
7109;BME280;29079;41.930;25.558;2023-01-25T02:01:39;101102.44;;;1.57;84.83
7109;BME280;29079;41.930;25.558;2023-01-25T02:04:15;101103.50;;;1.50;84.51
7109;BME280;29079;41.930;25.558;2023-01-25T02:06:56;101090.72;;;1.34;84.52
7109;BME280;29079;41.930;25.558;2023-01-25T02:09:33;101072.31;;;1.34;84.16
7109;BME280;29079;41.930;25.558;2023-01-25T02:12:10;101096.66;;;1.43;82.91
7109;BME280;29079;41.930;25.558;2023-01-25T02:14:47;101090.38;;;1.48;82.83
7109;BME280;29079;41.930;25.558;2023-01-25T02:17:24;101078.75;;;1.23;84.29
7109;BME280;29079;41.930;25.558;2023-01-25T02:20:02;101100.31;;;1.37;83.68
7109;BME280;29079;41.930;25.558;2023-01-25T02:22:44;101103.91;;;1.33;83.30
7109;BME280;29079;41.930;25.558;2023-01-25T02:25:21;101107.41;;;1.33;82.17
7109;BME280;29079;41.930;25.558;2023-01-25T02:27:58;101114.03;;;1.14;82.74
7109;BME280;29079;41.930;25.558;2023-01-25T02:30:33;101104.00;;;1.30;83.04
7109;BME280;29079;41.930;25.558;2023-01-25T02:33:06;101098.78;;;1.28;82.85
7109;BME280;29079;41.930;25.558;2023-01-25T02:35:42;101102.34;;;1.26;81.81
7109;BME280;29079;41.930;25.558;2023-01-25T02:38:18;101094.06;;;1.41;83.72
7109;BME280;29079;41.930;25.558;2023-01-25T02:40:56;101106.44;;;1.37;82.16
7109;BME280;29079;41.930;25.558;2023-01-25T02:43:32;101097.94;;;1.26;82.76
7109;BME280;29079;41.930;25.558;2023-01-25T02:46:09;101087.84;;;1.44;82.88
7109;BME280;29079;41.930;25.558;2023-01-25T02:48:45;101101.28;;;1.33;82.47
7109;BME280;29079;41.930;25.558;2023-01-25T02:51:19;101098.66;;;1.33;82.54
7109;BME280;29079;41.930;25.558;2023-01-25T02:53:53;101097.00;;;1.29;83.08
7109;BME280;29079;41.930;25.558;2023-01-25T02:56:28;101038.78;;;1.08;82.84
7109;BME280;29079;41.930;25.558;2023-01-25T02:59:02;101098.63;;;1.34;81.62
7109;BME280;29079;41.930;25.558;2023-01-25T03:01:38;101096.84;;;1.35;82.78
7109;BME280;29079;41.930;25.558;2023-01-25T03:04:11;101095.13;;;1.34;82.95
7109;BME280;29079;41.930;25.558;2023-01-25T03:06:45;101101.75;;;1.14;82.58
7109;BME280;29079;41.930;25.558;2023-01-25T03:09:19;101093.31;;;1.36;82.19
7109;BME280;29079;41.930;25.558;2023-01-25T03:11:54;101081.25;;;1.27;82.21
7109;BME280;29079;41.930;25.558;2023-01-25T03:14:28;101083.03;;;1.27;82.70
7109;BME280;29079;41.930;25.558;2023-01-25T03:17:02;101088.66;;;1.47;83.50
7109;BME280;29079;41.930;25.558;2023-01-25T03:19:35;101087.63;;;1.18;82.99
7109;BME280;29079;41.930;25.558;2023-01-25T03:22:08;101080.06;;;1.04;83.20
7109;BME280;29079;41.930;25.558;2023-01-25T03:24:42;101081.00;;;1.38;84.05
7109;BME280;29079;41.930;25.558;2023-01-25T03:27:17;101087.16;;;1.37;82.95
7109;BME280;29079;41.930;25.558;2023-01-25T03:29:50;101080.03;;;1.41;82.29
7109;BME280;29079;41.930;25.558;2023-01-25T03:32:23;101086.81;;;1.49;83.50
7109;BME280;29079;41.930;25.558;2023-01-25T03:34:57;101081.19;;;1.30;83.21
7109;BME280;29079;41.930;25.558;2023-01-25T03:37:30;101069.72;;;1.33;83.15
7109;BME280;29079;41.930;25.558;2023-01-25T03:40:06;101074.19;;;1.31;82.76
7109;BME280;29079;41.930;25.558;2023-01-25T03:42:41;101075.28;;;1.20;83.06
7109;BME280;29079;41.930;25.558;2023-01-25T03:45:15;101092.59;;;1.31;83.15
7109;BME280;29079;41.930;25.558;2023-01-25T03:47:48;101094.63;;;1.19;83.25
7109;BME280;29079;41.930;25.558;2023-01-25T03:50:21;101081.22;;;1.29;83.15
7109;BME280;29079;41.930;25.558;2023-01-25T03:52:57;101077.63;;;1.33;83.87
7109;BME280;29079;41.930;25.558;2023-01-25T03:55:45;101096.00;;;1.34;83.10
7109;BME280;29079;41.930;25.558;2023-01-25T03:58:22;101094.38;;;1.29;83.11
7109;BME280;29079;41.930;25.558;2023-01-25T04:00:57;101093.19;;;1.41;83.63
7109;BME280;29079;41.930;25.558;2023-01-25T04:03:32;101094.34;;;1.30;82.03
7109;BME280;29079;41.930;25.558;2023-01-25T04:06:06;101090.16;;;1.21;83.82
7109;BME280;29079;41.930;25.558;2023-01-25T04:08:39;101097.16;;;1.23;82.74
7109;BME280;29079;41.930;25.558;2023-01-25T04:11:12;101096.22;;;1.25;82.90
7109;BME280;29079;41.930;25.558;2023-01-25T04:13:47;101097.97;;;1.25;82.94
7109;BME280;29079;41.930;25.558;2023-01-25T04:16:21;101031.41;;;0.88;83.98
7109;BME280;29079;41.930;25.558;2023-01-25T04:18:54;101099.91;;;1.18;82.92
7109;BME280;29079;41.930;25.558;2023-01-25T04:21:28;101088.94;;;1.35;84.34
7109;BME280;29079;41.930;25.558;2023-01-25T04:24:02;101092.59;;;1.29;84.21
7109;BME280;29079;41.930;25.558;2023-01-25T04:26:36;101086.16;;;1.43;84.40
7109;BME280;29079;41.930;25.558;2023-01-25T04:29:10;101095.06;;;1.37;83.47
7109;BME280;29079;41.930;25.558;2023-01-25T04:31:44;101090.81;;;1.31;83.28
7109;BME280;29079;41.930;25.558;2023-01-25T04:34:17;101088.81;;;1.41;83.89
7109;BME280;29079;41.930;25.558;2023-01-25T04:36:51;101097.69;;;1.37;83.48
7109;BME280;29079;41.930;25.558;2023-01-25T04:39:24;101095.81;;;1.41;84.29
7109;BME280;29079;41.930;25.558;2023-01-25T04:41:58;101107.31;;;1.36;83.73
7109;BME280;29079;41.930;25.558;2023-01-25T04:44:33;101105.03;;;1.24;83.22
7109;BME280;29079;41.930;25.558;2023-01-25T04:47:06;101108.22;;;1.37;84.10
7109;BME280;29079;41.930;25.558;2023-01-25T04:49:39;101111.66;;;1.39;83.79
7109;BME280;29079;41.930;25.558;2023-01-25T04:52:13;101093.09;;;1.11;83.13
7109;BME280;29079;41.930;25.558;2023-01-25T04:54:46;101112.59;;;1.36;83.79
7109;BME280;29079;41.930;25.558;2023-01-25T04:57:20;101089.97;;;1.31;83.75
7109;BME280;29079;41.930;25.558;2023-01-25T04:59:54;101109.03;;;1.39;83.64
7109;BME280;29079;41.930;25.558;2023-01-25T05:02:28;101122.09;;;1.42;84.41
7109;BME280;29079;41.930;25.558;2023-01-25T05:05:02;101120.59;;;1.32;83.72
7109;BME280;29079;41.930;25.558;2023-01-25T05:07:35;101130.44;;;1.25;82.48
7109;BME280;29079;41.930;25.558;2023-01-25T05:10:09;101117.00;;;1.36;83.83
7109;BME280;29079;41.930;25.558;2023-01-25T05:12:44;101123.09;;;1.38;83.16
7109;BME280;29079;41.930;25.558;2023-01-25T05:15:19;101116.69;;;1.48;83.72
7109;BME280;29079;41.930;25.558;2023-01-25T05:17:52;101117.06;;;1.33;83.65
7109;BME280;29079;41.930;25.558;2023-01-25T05:20:25;101113.56;;;1.34;83.13
7109;BME280;29079;41.930;25.558;2023-01-25T05:22:59;101116.09;;;1.37;83.80
7109;BME280;29079;41.930;25.558;2023-01-25T05:25:33;101112.44;;;1.43;84.86
7109;BME280;29079;41.930;25.558;2023-01-25T05:28:24;101112.66;;;1.33;84.77
7109;BME280;29079;41.930;25.558;2023-01-25T05:30:58;101109.75;;;1.46;84.49
7109;BME280;29079;41.930;25.558;2023-01-25T05:33:35;101120.31;;;1.44;84.21
7109;BME280;29079;41.930;25.558;2023-01-25T05:36:08;101121.97;;;1.48;83.97
7109;BME280;29079;41.930;25.558;2023-01-25T05:38:42;101125.81;;;1.33;83.91
7109;BME280;29079;41.930;25.558;2023-01-25T05:41:15;101123.31;;;1.29;84.19
7109;BME280;29079;41.930;25.558;2023-01-25T05:43:48;101126.91;;;1.25;83.22
7109;BME280;29079;41.930;25.558;2023-01-25T05:46:23;101117.84;;;1.36;84.96
7109;BME280;29079;41.930;25.558;2023-01-25T05:48:57;101128.06;;;1.13;83.10
7109;BME280;29079;41.930;25.558;2023-01-25T05:51:31;101126.13;;;1.21;84.21
7109;BME280;29079;41.930;25.558;2023-01-25T05:54:04;101125.09;;;1.28;83.17
7109;BME280;29079;41.930;25.558;2023-01-25T05:56:38;101115.97;;;1.42;84.76
7109;BME280;29079;41.930;25.558;2023-01-25T05:59:11;101121.84;;;1.53;84.67
7109;BME280;29079;41.930;25.558;2023-01-25T06:01:46;101121.47;;;1.32;83.86
7109;BME280;29079;41.930;25.558;2023-01-25T06:04:20;101116.81;;;1.42;83.25
7109;BME280;29079;41.930;25.558;2023-01-25T06:06:53;101120.75;;;1.26;82.01
7109;BME280;29079;41.930;25.558;2023-01-25T06:09:27;101118.66;;;1.40;83.23
7109;BME280;29079;41.930;25.558;2023-01-25T06:12:00;101104.22;;;1.20;83.21
7109;BME280;29079;41.930;25.558;2023-01-25T06:14:34;101121.72;;;1.21;84.13
7109;BME280;29079;41.930;25.558;2023-01-25T06:17:09;101120.78;;;1.24;84.01
7109;BME280;29079;41.930;25.558;2023-01-25T06:19:43;101118.69;;;1.38;83.76
7109;BME280;29079;41.930;25.558;2023-01-25T06:22:17;101122.84;;;1.11;81.64
7109;BME280;29079;41.930;25.558;2023-01-25T06:24:50;101122.38;;;1.31;83.41
7109;BME280;29079;41.930;25.558;2023-01-25T06:27:23;101123.09;;;1.36;83.04
7109;BME280;29079;41.930;25.558;2023-01-25T06:29:57;101123.75;;;1.46;83.98
7109;BME280;29079;41.930;25.558;2023-01-25T06:32:32;101083.81;;;0.94;81.50
7109;BME280;29079;41.930;25.558;2023-01-25T06:35:06;101132.00;;;1.32;83.34
7109;BME280;29079;41.930;25.558;2023-01-25T06:37:40;101137.25;;;1.32;81.32
7109;BME280;29079;41.930;25.558;2023-01-25T06:40:14;101131.56;;;1.15;81.28
7109;BME280;29079;41.930;25.558;2023-01-25T06:42:48;101128.66;;;1.26;82.00
7109;BME280;29079;41.930;25.558;2023-01-25T06:45:21;101133.78;;;1.30;82.16
7109;BME280;29079;41.930;25.558;2023-01-25T06:47:56;101133.63;;;1.38;81.97
7109;BME280;29079;41.930;25.558;2023-01-25T06:50:29;101131.03;;;1.35;82.16
7109;BME280;29079;41.930;25.558;2023-01-25T06:53:03;101134.81;;;1.25;81.35
7109;BME280;29079;41.930;25.558;2023-01-25T06:55:36;101134.69;;;1.31;82.04
7109;BME280;29079;41.930;25.558;2023-01-25T06:58:11;101134.03;;;1.21;81.61
7109;BME280;29079;41.930;25.558;2023-01-25T07:00:44;101121.84;;;1.17;82.57
7109;BME280;29079;41.930;25.558;2023-01-25T07:03:19;101126.19;;;1.19;81.73
7109;BME280;29079;41.930;25.558;2023-01-25T07:05:56;101113.38;;;1.04;81.61
7109;BME280;29079;41.930;25.558;2023-01-25T07:08:30;101135.59;;;1.28;82.74
7109;BME280;29079;41.930;25.558;2023-01-25T07:11:06;101136.69;;;1.19;81.27
7109;BME280;29079;41.930;25.558;2023-01-25T07:13:41;101135.59;;;1.28;80.57
7109;BME280;29079;41.930;25.558;2023-01-25T07:16:17;101139.94;;;1.31;81.29
7109;BME280;29079;41.930;25.558;2023-01-25T07:18:53;101137.19;;;1.35;80.21
7109;BME280;29079;41.930;25.558;2023-01-25T07:21:27;101125.91;;;1.30;80.32
7109;BME280;29079;41.930;25.558;2023-01-25T07:24:01;101129.06;;;1.45;81.70
7109;BME280;29079;41.930;25.558;2023-01-25T07:26:34;101139.84;;;1.34;79.97
7109;BME280;29079;41.930;25.558;2023-01-25T07:29:11;101148.69;;;1.31;81.06
7109;BME280;29079;41.930;25.558;2023-01-25T07:31:45;101142.16;;;1.46;80.03
7109;BME280;29079;41.930;25.558;2023-01-25T07:34:20;101142.50;;;1.34;80.01
7109;BME280;29079;41.930;25.558;2023-01-25T07:36:54;101143.22;;;1.39;79.56
7109;BME280;29079;41.930;25.558;2023-01-25T07:39:27;101146.94;;;1.30;78.91
7109;BME280;29079;41.930;25.558;2023-01-25T07:42:01;101153.31;;;1.56;79.79
7109;BME280;29079;41.930;25.558;2023-01-25T07:44:34;101142.09;;;1.49;78.83
7109;BME280;29079;41.930;25.558;2023-01-25T07:47:08;101144.13;;;1.72;80.10
7109;BME280;29079;41.930;25.558;2023-01-25T07:49:43;101151.09;;;1.75;79.67
7109;BME280;29079;41.930;25.558;2023-01-25T07:52:17;101151.03;;;1.77;78.11
7109;BME280;29079;41.930;25.558;2023-01-25T07:54:50;101149.84;;;1.54;77.32
7109;BME280;29079;41.930;25.558;2023-01-25T07:57:24;101143.53;;;1.63;78.40
7109;BME280;29079;41.930;25.558;2023-01-25T07:59:59;101152.19;;;1.66;76.40
7109;BME280;29079;41.930;25.558;2023-01-25T08:02:32;101149.84;;;1.55;76.34
7109;BME280;29079;41.930;25.558;2023-01-25T08:05:08;101152.78;;;1.43;76.13
7109;BME280;29079;41.930;25.558;2023-01-25T08:07:42;101151.97;;;1.74;77.76
7109;BME280;29079;41.930;25.558;2023-01-25T08:10:16;101150.22;;;1.74;75.71
7109;BME280;29079;41.930;25.558;2023-01-25T08:12:49;101155.84;;;1.61;75.78
7109;BME280;29079;41.930;25.558;2023-01-25T08:15:23;101157.50;;;1.65;75.07
7109;BME280;29079;41.930;25.558;2023-01-25T08:17:58;101156.25;;;1.78;77.42
7109;BME280;29079;41.930;25.558;2023-01-25T08:20:33;101154.47;;;1.80;78.28
7109;BME280;29079;41.930;25.558;2023-01-25T08:23:07;101154.84;;;1.65;75.23
7109;BME280;29079;41.930;25.558;2023-01-25T08:25:40;101153.00;;;1.68;76.11
7109;BME280;29079;41.930;25.558;2023-01-25T08:28:13;101158.59;;;1.90;76.31
7109;BME280;29079;41.930;25.558;2023-01-25T08:30:47;101161.44;;;1.81;74.62
7109;BME280;29079;41.930;25.558;2023-01-25T08:33:29;101157.31;;;1.71;75.51
7109;BME280;29079;41.930;25.558;2023-01-25T08:36:05;101127.78;;;1.60;74.32
7109;BME280;29079;41.930;25.558;2023-01-25T08:38:40;101139.41;;;1.85;76.16
7109;BME280;29079;41.930;25.558;2023-01-25T08:41:15;101065.69;;;1.52;75.73
7109;BME280;29079;41.930;25.558;2023-01-25T08:43:50;101142.31;;;2.07;76.52
7109;BME280;29079;41.930;25.558;2023-01-25T08:46:26;101127.63;;;1.99;75.20
7109;BME280;29079;41.930;25.558;2023-01-25T08:49:03;101146.38;;;2.19;74.84
7109;BME280;29079;41.930;25.558;2023-01-25T08:51:38;101147.97;;;2.25;74.51
7109;BME280;29079;41.930;25.558;2023-01-25T08:54:11;101144.41;;;1.95;73.84
7109;BME280;29079;41.930;25.558;2023-01-25T08:56:45;101139.88;;;2.00;74.27
7109;BME280;29079;41.930;25.558;2023-01-25T08:59:18;101142.25;;;1.78;74.31
7109;BME280;29079;41.930;25.558;2023-01-25T09:01:51;101136.94;;;1.79;74.21
7109;BME280;29079;41.930;25.558;2023-01-25T09:04:25;101140.38;;;1.81;74.58
7109;BME280;29079;41.930;25.558;2023-01-25T09:07:01;101142.47;;;2.01;75.71
7109;BME280;29079;41.930;25.558;2023-01-25T09:09:34;101040.03;;;1.61;76.75
7109;BME280;29079;41.930;25.558;2023-01-25T09:12:09;101123.75;;;2.12;74.51
7109;BME280;29079;41.930;25.558;2023-01-25T09:14:43;101118.41;;;2.15;74.69
7109;BME280;29079;41.930;25.558;2023-01-25T09:17:16;101116.97;;;2.03;75.62
7109;BME280;29079;41.930;25.558;2023-01-25T09:19:50;101119.91;;;2.24;75.47
7109;BME280;29079;41.930;25.558;2023-01-25T09:22:25;101108.69;;;2.17;75.53
7109;BME280;29079;41.930;25.558;2023-01-25T09:24:58;101103.13;;;1.97;74.42
7109;BME280;29079;41.930;25.558;2023-01-25T09:27:32;101100.34;;;2.01;74.50
7109;BME280;29079;41.930;25.558;2023-01-25T09:30:08;101097.75;;;2.00;74.42
7109;BME280;29079;41.930;25.558;2023-01-25T09:32:49;101095.13;;;2.00;75.05
7109;BME280;29079;41.930;25.558;2023-01-25T09:35:23;101095.72;;;2.09;74.17
7109;BME280;29079;41.930;25.558;2023-01-25T09:38:02;101084.88;;;1.90;74.30
7109;BME280;29079;41.930;25.558;2023-01-25T09:40:38;101060.72;;;1.74;73.70
7109;BME280;29079;41.930;25.558;2023-01-25T09:43:26;101072.03;;;1.78;73.76
7109;BME280;29079;41.930;25.558;2023-01-25T09:46:11;101078.13;;;1.80;72.98
7109;BME280;29079;41.930;25.558;2023-01-25T09:48:55;101061.25;;;1.87;72.84
7109;BME280;29079;41.930;25.558;2023-01-25T09:51:52;101068.50;;;1.79;72.50
7109;BME280;29079;41.930;25.558;2023-01-25T09:54:36;101072.63;;;1.88;72.47
7109;BME280;29079;41.930;25.558;2023-01-25T09:57:21;101062.53;;;2.04;74.03
7109;BME280;29079;41.930;25.558;2023-01-25T09:59:59;101065.13;;;2.05;73.83
7109;BME280;29079;41.930;25.558;2023-01-25T10:02:39;101057.31;;;2.02;73.06
7109;BME280;29079;41.930;25.558;2023-01-25T10:05:18;100993.41;;;1.66;73.88
7109;BME280;29079;41.930;25.558;2023-01-25T10:07:57;101059.25;;;1.96;73.04
7109;BME280;29079;41.930;25.558;2023-01-25T10:10:36;101044.81;;;1.79;73.81
7109;BME280;29079;41.930;25.558;2023-01-25T10:13:13;101040.25;;;1.84;74.08
7109;BME280;29079;41.930;25.558;2023-01-25T10:15:51;100999.66;;;1.62;73.18
7109;BME280;29079;41.930;25.558;2023-01-25T10:18:31;101030.88;;;2.05;74.89
7109;BME280;29079;41.930;25.558;2023-01-25T10:21:10;101031.78;;;2.04;73.51
7109;BME280;29079;41.930;25.558;2023-01-25T10:24:05;101023.31;;;1.93;73.96
7109;BME280;29079;41.930;25.558;2023-01-25T10:26:47;100993.16;;;1.75;73.94
7109;BME280;29079;41.930;25.558;2023-01-25T10:29:26;101000.03;;;2.09;75.03
7109;BME280;29079;41.930;25.558;2023-01-25T10:32:12;101007.66;;;1.88;73.98
7109;BME280;29079;41.930;25.558;2023-01-25T10:34:51;101008.09;;;2.04;75.63
7109;BME280;29079;41.930;25.558;2023-01-25T10:37:31;101004.41;;;2.10;75.28
7109;BME280;29079;41.930;25.558;2023-01-25T10:40:14;100976.13;;;1.87;72.87
7109;BME280;29079;41.930;25.558;2023-01-25T10:42:54;100993.16;;;2.05;73.38
7109;BME280;29079;41.930;25.558;2023-01-25T10:45:29;100977.31;;;2.06;72.33
7109;BME280;29079;41.930;25.558;2023-01-25T10:48:06;100984.28;;;2.07;73.06
7109;BME280;29079;41.930;25.558;2023-01-25T10:50:46;100974.50;;;2.13;72.94
7109;BME280;29079;41.930;25.558;2023-01-25T10:53:28;100976.88;;;2.20;72.77
7109;BME280;29079;41.930;25.558;2023-01-25T10:56:10;100979.72;;;2.14;73.15
7109;BME280;29079;41.930;25.558;2023-01-25T10:58:50;100969.91;;;2.18;73.66
7109;BME280;29079;41.930;25.558;2023-01-25T11:01:28;100972.75;;;2.12;72.48
7109;BME280;29079;41.930;25.558;2023-01-25T11:04:21;100970.59;;;2.24;73.51
7109;BME280;29079;41.930;25.558;2023-01-25T11:06:55;100965.75;;;2.39;73.82
7109;BME280;29079;41.930;25.558;2023-01-25T11:09:34;100951.28;;;2.25;73.22
7109;BME280;29079;41.930;25.558;2023-01-25T11:12:16;100956.44;;;2.29;73.13
7109;BME280;29079;41.930;25.558;2023-01-25T11:14:52;100956.91;;;2.13;71.49
7109;BME280;29079;41.930;25.558;2023-01-25T11:17:27;100877.13;;;1.81;73.09
7109;BME280;29079;41.930;25.558;2023-01-25T11:20:09;100952.69;;;2.36;73.38
7109;BME280;29079;41.930;25.558;2023-01-25T11:22:51;100953.69;;;2.32;73.05
7109;BME280;29079;41.930;25.558;2023-01-25T11:25:27;100942.59;;;2.22;72.07
7109;BME280;29079;41.930;25.558;2023-01-25T11:28:16;100939.34;;;2.14;72.11
7109;BME280;29079;41.930;25.558;2023-01-25T11:30:52;100938.47;;;2.13;73.19
7109;BME280;29079;41.930;25.558;2023-01-25T11:33:25;100934.63;;;2.23;73.80
7109;BME280;29079;41.930;25.558;2023-01-25T11:36:13;100937.56;;;2.14;71.84
7109;BME280;29079;41.930;25.558;2023-01-25T11:38:59;100921.28;;;2.01;71.89
7109;BME280;29079;41.930;25.558;2023-01-25T11:41:45;100922.28;;;2.25;72.65
7109;BME280;29079;41.930;25.558;2023-01-25T11:47:53;100909.22;;;2.22;72.56
7109;BME280;29079;41.930;25.558;2023-01-25T11:50:34;100910.13;;;2.21;72.45
7109;BME280;29079;41.930;25.558;2023-01-25T11:53:28;100906.06;;;2.11;71.66
7109;BME280;29079;41.930;25.558;2023-01-25T11:56:12;100818.78;;;1.67;72.25
7109;BME280;29079;41.930;25.558;2023-01-25T11:59:00;100900.22;;;2.30;72.56
7109;BME280;29079;41.930;25.558;2023-01-25T12:01:50;100897.88;;;2.47;73.12
7109;BME280;29079;41.930;25.558;2023-01-25T12:04:58;100888.75;;;2.31;72.12
7109;BME280;29079;41.930;25.558;2023-01-25T12:08:00;100895.38;;;2.16;70.40
7109;BME280;29079;41.930;25.558;2023-01-25T12:10:45;100881.19;;;2.20;70.82
7109;BME280;29079;41.930;25.558;2023-01-25T12:13:29;100873.19;;;2.23;71.22
7109;BME280;29079;41.930;25.558;2023-01-25T12:19:24;100878.06;;;2.35;69.85
7109;BME280;29079;41.930;25.558;2023-01-25T12:22:14;100816.06;;;1.98;71.04
7109;BME280;29079;41.930;25.558;2023-01-25T12:24:57;100850.06;;;2.33;72.46
7109;BME280;29079;41.930;25.558;2023-01-25T12:27:43;100742.38;;;1.70;70.79
7109;BME280;29079;41.930;25.558;2023-01-25T12:30:25;100849.38;;;2.26;71.38
7109;BME280;29079;41.930;25.558;2023-01-25T12:33:08;100833.38;;;2.32;70.64
7109;BME280;29079;41.930;25.558;2023-01-25T12:35:52;100844.06;;;2.28;70.58
7109;BME280;29079;41.930;25.558;2023-01-25T12:38:34;100849.78;;;2.40;72.06
7109;BME280;29079;41.930;25.558;2023-01-25T12:41:19;100821.13;;;2.31;71.91
7109;BME280;29079;41.930;25.558;2023-01-25T12:43:58;100841.59;;;2.23;70.11
7109;BME280;29079;41.930;25.558;2023-01-25T12:46:39;100838.84;;;2.26;70.02
7109;BME280;29079;41.930;25.558;2023-01-25T12:49:21;100834.06;;;2.12;69.16
7109;BME280;29079;41.930;25.558;2023-01-25T12:52:00;100829.13;;;2.28;71.22
7109;BME280;29079;41.930;25.558;2023-01-25T12:54:40;100826.13;;;2.39;70.60
7109;BME280;29079;41.930;25.558;2023-01-25T12:57:19;100828.31;;;2.26;71.33
7109;BME280;29079;41.930;25.558;2023-01-25T13:00:00;100834.25;;;2.33;70.90
7109;BME280;29079;41.930;25.558;2023-01-25T13:02:52;100833.22;;;2.37;70.75
7109;BME280;29079;41.930;25.558;2023-01-25T13:05:31;100840.41;;;2.32;70.62
7109;BME280;29079;41.930;25.558;2023-01-25T13:08:16;100833.38;;;2.32;70.83
7109;BME280;29079;41.930;25.558;2023-01-25T13:11:13;100825.50;;;2.31;70.88
7109;BME280;29079;41.930;25.558;2023-01-25T13:13:49;100847.03;;;2.43;71.23
7109;BME280;29079;41.930;25.558;2023-01-25T13:16:32;100836.78;;;2.36;71.50
7109;BME280;29079;41.930;25.558;2023-01-25T13:19:18;100836.78;;;2.36;71.17
7109;BME280;29079;41.930;25.558;2023-01-25T13:21:52;100831.50;;;2.36;70.13
7109;BME280;29079;41.930;25.558;2023-01-25T13:24:28;100831.94;;;2.49;71.15
7109;BME280;29079;41.930;25.558;2023-01-25T13:27:23;100825.16;;;2.41;70.18
7109;BME280;29079;41.930;25.558;2023-01-25T13:29:58;100824.16;;;2.46;70.80
7109;BME280;29079;41.930;25.558;2023-01-25T13:33:03;100814.28;;;2.51;70.67
7109;BME280;29079;41.930;25.558;2023-01-25T13:35:41;100803.44;;;2.35;70.09
7109;BME280;29079;41.930;25.558;2023-01-25T13:38:27;100820.38;;;2.53;70.13
7109;BME280;29079;41.930;25.558;2023-01-25T13:41:04;100812.34;;;2.31;70.38
7109;BME280;29079;41.930;25.558;2023-01-25T13:43:51;100813.75;;;2.41;70.74
7109;BME280;29079;41.930;25.558;2023-01-25T13:46:26;100804.19;;;2.38;70.14
7109;BME280;29079;41.930;25.558;2023-01-25T13:49:03;100810.63;;;2.30;69.50
7109;BME280;29079;41.930;25.558;2023-01-25T13:51:40;100809.59;;;2.34;71.48
7109;BME280;29079;41.930;25.558;2023-01-25T13:54:15;100803.69;;;2.27;70.36
7109;BME280;29079;41.930;25.558;2023-01-25T13:57:02;100807.22;;;2.26;69.21
7109;BME280;29079;41.930;25.558;2023-01-25T13:59:38;100808.41;;;2.44;70.82